createdAt,value
2022-10-05T00:03:43.573Z,18.16
2022-10-05T00:08:45.944Z,18.00
2022-10-05T00:13:48.363Z,17.85
2022-10-05T00:18:51.512Z,17.81
2022-10-05T00:23:55.815Z,17.90
2022-10-05T00:29:07.194Z,17.95
2022-10-05T00:34:15.494Z,17.86
2022-10-05T00:39:18.248Z,17.72
2022-10-05T00:44:20.545Z,17.68
2022-10-05T00:49:31.764Z,17.33
2022-10-05T00:54:37.070Z,17.66
2022-10-05T00:59:49.161Z,17.65
2022-10-05T01:04:59.335Z,17.69
2022-10-05T01:10:01.531Z,17.74
2022-10-05T01:15:16.356Z,17.52
2022-10-05T01:20:36.418Z,17.89
2022-10-05T01:25:56.940Z,17.81
2022-10-05T01:30:59.161Z,17.83
2022-10-05T01:36:29.465Z,17.65
2022-10-05T01:41:32.634Z,17.65
2022-10-05T01:46:45.039Z,17.74
2022-10-05T01:52:06.332Z,17.62
2022-10-05T01:57:11.662Z,17.47
2022-10-05T02:02:23.302Z,17.28
2022-10-05T02:07:54.835Z,17.36
2022-10-05T02:13:16.032Z,17.32
2022-10-05T02:18:20.518Z,17.17
2022-10-05T02:23:27.603Z,16.99
2022-10-05T02:28:45.580Z,17.05
2022-10-05T02:33:48.024Z,17.19
2022-10-05T02:39:17.968Z,17.29
2022-10-05T02:44:29.827Z,17.21
2022-10-05T02:49:39.667Z,17.14
2022-10-05T02:54:47.068Z,17.09
2022-10-05T03:00:02.526Z,17.05
2022-10-05T03:05:08.053Z,16.95
2022-10-05T03:10:34.811Z,16.97
2022-10-05T03:15:42.717Z,16.99
2022-10-05T03:20:55.912Z,17.09
2022-10-05T03:32:47.672Z,17.28
2022-10-05T03:38:06.429Z,17.49
2022-10-05T03:43:30.716Z,17.56
2022-10-05T03:48:49.125Z,17.44
2022-10-05T03:54:02.179Z,17.70
2022-10-05T03:59:15.326Z,17.64
2022-10-05T04:04:23.074Z,17.78
2022-10-05T04:09:33.234Z,17.57
2022-10-05T04:14:45.243Z,17.60
2022-10-05T04:19:59.160Z,17.48
2022-10-05T04:25:06.603Z,17.52
2022-10-05T04:30:12.637Z,17.46
2022-10-05T04:35:18.271Z,17.42
2022-10-05T04:40:39.433Z,17.40
2022-10-05T04:45:48.787Z,17.41
2022-10-05T04:51:08.010Z,17.26
2022-10-05T04:56:16.257Z,17.15
2022-10-05T05:01:30.237Z,17.13
2022-10-05T05:06:45.811Z,17.29
2022-10-05T05:11:55.305Z,17.64
2022-10-05T05:17:15.083Z,17.65
2022-10-05T05:22:20.473Z,17.58
2022-10-05T05:27:40.822Z,17.57
2022-10-05T05:33:03.885Z,17.48
2022-10-05T05:38:44.676Z,17.57
2022-10-05T05:44:07.867Z,17.93
2022-10-05T05:55:05.381Z,17.65
2022-10-05T06:00:16.753Z,17.74
2022-10-05T06:05:36.345Z,18.17
2022-10-05T06:10:44.201Z,18.16
2022-10-05T06:15:52.107Z,18.08
2022-10-05T06:21:03.762Z,18.49
2022-10-05T06:26:16.252Z,18.78
2022-10-05T06:31:35.183Z,18.72
2022-10-05T06:36:43.537Z,18.97
2022-10-05T06:41:46.188Z,19.17
2022-10-05T06:47:00.957Z,19.37
2022-10-05T06:52:30.199Z,19.82
2022-10-05T06:57:53.517Z,19.86
2022-10-05T07:03:16.637Z,19.68
2022-10-05T07:08:23.234Z,20.36
2022-10-05T07:13:32.058Z,20.25
2022-10-05T07:18:35.828Z,19.93
2022-10-05T07:23:48.163Z,20.11
2022-10-05T07:29:15.820Z,20.11
2022-10-05T07:34:20.095Z,20.16
2022-10-05T07:39:59.559Z,20.06
2022-10-05T07:45:10.117Z,20.15
2022-10-05T07:50:31.640Z,20.47
2022-10-05T07:55:37.196Z,20.34
2022-10-05T08:00:49.106Z,19.99
2022-10-05T08:05:52.921Z,20.37
2022-10-05T08:11:18.507Z,21.35
2022-10-05T08:16:24.754Z,21.84
2022-10-05T08:28:12.857Z,21.21
2022-10-05T08:33:22.645Z,21.20
2022-10-05T08:38:30.646Z,21.20
2022-10-05T08:43:35.788Z,21.26
2022-10-05T08:48:44.063Z,21.19
2022-10-05T08:54:06.093Z,21.23
2022-10-05T08:59:18.204Z,21.52
2022-10-05T09:04:30.177Z,21.57
2022-10-05T09:09:38.434Z,21.64
2022-10-05T09:20:27.042Z,21.77
2022-10-05T09:25:46.221Z,21.65
2022-10-05T09:30:56.703Z,21.92
2022-10-05T09:36:05.005Z,21.92
2022-10-05T09:41:30.372Z,21.90
2022-10-05T09:46:32.886Z,21.67
2022-10-05T09:51:54.558Z,21.65
2022-10-05T09:57:19.714Z,21.73
2022-10-05T10:02:22.243Z,21.80
2022-10-05T10:07:25.658Z,21.62
2022-10-05T10:12:43.154Z,21.86
2022-10-05T10:18:08.764Z,21.85
2022-10-05T10:23:28.592Z,21.86
2022-10-05T10:28:33.464Z,22.11
2022-10-05T10:33:55.656Z,21.91
2022-10-05T10:38:58.661Z,22.16
2022-10-05T10:45:13.608Z,21.94
2022-10-05T10:50:28.482Z,22.03
2022-10-05T10:55:38.629Z,22.35
2022-10-05T11:00:46.093Z,22.25
2022-10-05T11:06:11.957Z,22.21
2022-10-05T11:11:33.281Z,22.16
2022-10-05T11:16:55.721Z,22.17
2022-10-05T11:22:37.101Z,22.57
2022-10-05T11:27:49.110Z,22.61
2022-10-05T11:32:56.435Z,22.67
2022-10-05T11:38:09.839Z,22.67
2022-10-05T11:43:25.864Z,22.43
2022-10-05T11:48:59.536Z,22.67
2022-10-05T11:54:22.241Z,22.72
2022-10-05T11:59:51.828Z,22.80
2022-10-05T12:05:22.341Z,22.85
2022-10-05T12:10:45.172Z,22.92
2022-10-05T12:16:08.992Z,22.77
2022-10-05T12:21:13.148Z,22.98
2022-10-05T12:26:20.753Z,23.01
2022-10-05T12:31:33.600Z,23.03
2022-10-05T12:37:03.526Z,23.03
2022-10-05T12:42:18.580Z,23.03
2022-10-05T12:47:39.544Z,23.14
2022-10-05T12:53:01.105Z,23.16
2022-10-05T12:58:07.695Z,23.17
2022-10-05T13:03:19.753Z,22.99
2022-10-05T13:08:32.443Z,23.07
2022-10-05T13:13:57.338Z,23.20
2022-10-05T13:19:04.196Z,23.18
2022-10-05T13:24:09.504Z,23.40
2022-10-05T13:29:30.746Z,23.25
2022-10-05T13:34:55.467Z,23.08
2022-10-05T13:40:06.824Z,23.28
2022-10-05T13:45:25.894Z,23.21
2022-10-05T13:50:33.630Z,23.29
2022-10-05T13:55:55.649Z,23.26
2022-10-05T14:01:04.340Z,23.31
2022-10-05T14:06:14.130Z,23.29
2022-10-05T14:11:26.761Z,23.13
2022-10-05T14:16:31.082Z,23.18
2022-10-05T14:21:42.995Z,23.19
2022-10-05T14:26:51.475Z,23.32
2022-10-05T14:31:58.155Z,23.30
2022-10-05T14:37:29.743Z,23.29
2022-10-05T14:42:47.136Z,23.21
2022-10-05T14:48:10.014Z,23.27
2022-10-05T14:53:16.122Z,23.21
2022-10-05T14:58:36.434Z,22.93
2022-10-05T15:03:55.757Z,22.96
2022-10-05T15:09:21.226Z,22.88
2022-10-05T15:14:37.039Z,22.90
2022-10-05T15:19:53.926Z,22.83
2022-10-05T15:25:15.201Z,22.63
2022-10-05T15:30:18.559Z,22.51
2022-10-05T15:35:40.446Z,22.41
2022-10-05T15:40:55.450Z,22.10
2022-10-05T15:45:57.725Z,21.96
2022-10-05T15:51:28.631Z,21.81
2022-10-05T15:56:36.451Z,21.59
2022-10-05T16:02:00.597Z,21.63
2022-10-05T16:07:21.741Z,21.31
2022-10-05T16:12:36.683Z,21.20
2022-10-05T16:17:41.038Z,20.85
2022-10-05T16:23:02.288Z,20.77
2022-10-05T16:28:11.780Z,20.54
2022-10-05T16:33:34.282Z,20.38
2022-10-05T16:38:38.477Z,20.29
2022-10-05T16:44:09.907Z,20.17
2022-10-05T16:49:19.418Z,20.09
2022-10-05T16:54:21.700Z,20.07
2022-10-05T16:59:53.713Z,19.99
2022-10-05T17:05:24.424Z,19.84
2022-10-05T17:10:44.612Z,19.60
2022-10-05T17:16:03.559Z,19.42
2022-10-05T17:21:15.188Z,19.33
2022-10-05T17:26:23.305Z,19.25
2022-10-05T17:31:29.074Z,19.21
2022-10-05T17:36:44.767Z,18.92
2022-10-05T17:41:49.771Z,19.02
2022-10-05T17:46:56.138Z,18.99
2022-10-05T17:52:18.111Z,18.92
2022-10-05T17:57:27.969Z,18.76
2022-10-05T18:02:36.554Z,18.76
2022-10-05T18:07:44.426Z,18.59
2022-10-05T18:12:51.501Z,18.54
2022-10-05T18:17:59.208Z,18.51
2022-10-05T18:23:12.196Z,18.51
2022-10-05T18:28:17.625Z,18.43
2022-10-05T18:33:21.181Z,18.38
2022-10-05T18:38:42.251Z,18.41
2022-10-05T18:43:53.738Z,18.40
2022-10-05T18:49:04.149Z,18.36
2022-10-05T18:54:06.318Z,18.33
2022-10-05T18:59:24.516Z,18.34
2022-10-05T19:04:40.866Z,18.21
2022-10-05T19:09:49.866Z,18.18
2022-10-05T19:15:13.453Z,18.18
2022-10-05T19:20:34.120Z,18.14
2022-10-05T19:25:40.126Z,18.10
2022-10-05T19:30:45.501Z,18.12
2022-10-05T19:35:50.943Z,18.10
2022-10-05T19:41:02.614Z,18.05
2022-10-05T19:46:04.802Z,17.94
2022-10-05T19:51:12.790Z,17.92
2022-10-05T19:56:20.545Z,17.92
2022-10-05T20:01:34.059Z,17.82
2022-10-05T20:06:37.151Z,17.86
2022-10-05T20:11:48.554Z,17.85
2022-10-05T20:17:29.368Z,17.88
2022-10-05T20:22:36.575Z,17.72
2022-10-05T20:27:48.585Z,17.77
2022-10-05T20:32:52.752Z,18.02
2022-10-05T20:37:59.162Z,18.06
2022-10-05T20:43:01.639Z,18.21
2022-10-05T20:48:03.985Z,18.15
2022-10-05T20:53:11.572Z,18.57
2022-10-05T20:58:18.117Z,18.66
2022-10-05T21:03:20.634Z,18.61
2022-10-05T21:08:22.970Z,18.48
2022-10-05T21:13:30.262Z,18.38
2022-10-05T21:18:44.168Z,18.37
2022-10-05T21:23:47.066Z,18.44
2022-10-05T21:28:49.414Z,18.29
2022-10-05T21:33:51.776Z,18.34
2022-10-05T21:38:56.513Z,18.17
2022-10-05T21:44:09.122Z,18.25
2022-10-05T21:49:14.177Z,18.43
2022-10-05T21:54:21.278Z,18.63
2022-10-05T21:59:26.669Z,18.45
2022-10-05T22:09:47.972Z,18.58
2022-10-05T22:14:50.775Z,18.47
2022-10-05T22:19:54.422Z,18.35
2022-10-05T22:24:56.700Z,18.45
2022-10-05T22:30:00.352Z,18.37
2022-10-05T22:35:02.677Z,18.29
2022-10-05T22:40:05.846Z,18.27
2022-10-05T22:45:08.882Z,18.20
2022-10-05T22:50:13.809Z,18.25
2022-10-05T22:55:16.176Z,18.42
2022-10-05T23:00:18.788Z,18.44
2022-10-05T23:05:20.981Z,18.49
2022-10-05T23:10:26.219Z,18.37
2022-10-05T23:15:28.436Z,18.14
2022-10-05T23:20:30.717Z,18.16
2022-10-05T23:25:33.018Z,18.52
2022-10-05T23:30:35.331Z,18.55
2022-10-05T23:35:38.336Z,18.65
2022-10-05T23:40:44.888Z,18.93
2022-10-05T23:45:47.374Z,19.00
2022-10-05T23:50:49.815Z,19.00
2022-10-05T23:55:53.855Z,19.00
